createdAt,value
2022-09-17T00:01:50.213Z,9.76
2022-09-17T00:04:24.720Z,9.75
2022-09-17T00:06:55.488Z,9.54
2022-09-17T00:09:26.032Z,9.51
2022-09-17T00:11:54.784Z,9.51
2022-09-17T00:14:30.919Z,9.31
2022-09-17T00:17:01.885Z,9.24
2022-09-17T00:19:31.061Z,9.31
2022-09-17T00:21:59.681Z,9.35
2022-09-17T00:24:36.609Z,9.47
2022-09-17T00:27:05.117Z,9.57
2022-09-17T00:29:35.626Z,9.54
2022-09-17T00:32:12.951Z,9.59
2022-09-17T00:34:47.168Z,9.68
2022-09-17T00:37:26.461Z,9.66
2022-09-17T00:39:56.763Z,9.62
2022-09-17T00:42:26.153Z,9.61
2022-09-17T00:44:58.452Z,9.64
2022-09-17T00:47:32.644Z,9.59
2022-09-17T00:50:07.237Z,9.59
2022-09-17T00:52:39.567Z,9.53
2022-09-17T00:55:15.394Z,9.42
2022-09-17T00:57:46.052Z,9.45
2022-09-17T01:00:23.005Z,9.53
2022-09-17T01:02:51.356Z,9.46
2022-09-17T01:05:37.233Z,9.24
2022-09-17T01:08:33.070Z,9.07
2022-09-17T01:11:30.226Z,9.00
2022-09-17T01:14:17.008Z,8.85
2022-09-17T01:16:55.872Z,8.85
2022-09-17T01:20:13.995Z,8.81
2022-09-17T01:22:56.054Z,8.89
2022-09-17T01:25:48.445Z,8.90
2022-09-17T01:28:32.948Z,8.93
2022-09-17T01:31:37.405Z,8.89
2022-09-17T01:34:16.799Z,8.82
2022-09-17T01:37:02.271Z,8.75
2022-09-17T01:39:44.691Z,8.64
2022-09-17T01:42:28.837Z,8.60
2022-09-17T01:45:05.327Z,8.64
2022-09-17T01:47:41.215Z,8.73
2022-09-17T01:50:17.450Z,8.73
2022-09-17T01:52:58.426Z,8.76
2022-09-17T01:55:32.558Z,8.84
2022-09-17T01:58:07.628Z,8.85
2022-09-17T02:00:38.038Z,8.87
2022-09-17T02:03:16.670Z,8.89
2022-09-17T02:05:51.155Z,8.86
2022-09-17T02:08:22.908Z,8.86
2022-09-17T02:10:57.723Z,8.79
2022-09-17T02:13:33.389Z,8.76
2022-09-17T02:16:09.688Z,8.74
2022-09-17T02:18:52.219Z,8.77
2022-09-17T02:21:37.973Z,8.75
2022-09-17T02:24:13.545Z,8.67
2022-09-17T02:26:47.401Z,8.55
2022-09-17T02:29:24.923Z,8.35
2022-09-17T02:31:55.473Z,8.24
2022-09-17T02:34:29.884Z,8.20
2022-09-17T02:37:00.275Z,8.15
2022-09-17T02:39:29.488Z,8.09
2022-09-17T02:42:11.056Z,7.89
2022-09-17T02:44:46.275Z,7.83
2022-09-17T02:47:32.553Z,7.86
2022-09-17T02:50:25.093Z,7.95
2022-09-17T02:53:06.456Z,7.93
2022-09-17T02:55:43.456Z,8.01
2022-09-17T02:58:32.920Z,7.96
2022-09-17T03:01:09.369Z,8.01
2022-09-17T03:03:42.835Z,8.09
2022-09-17T03:06:15.725Z,7.98
2022-09-17T03:08:45.845Z,7.93
2022-09-17T03:11:15.624Z,7.84
2022-09-17T03:13:45.964Z,7.80
2022-09-17T03:16:24.090Z,7.88
2022-09-17T03:18:53.784Z,7.87
2022-09-17T03:21:25.535Z,7.88
2022-09-17T03:23:56.129Z,7.89
2022-09-17T03:26:31.724Z,7.95
2022-09-17T03:29:01.368Z,7.95
2022-09-17T03:31:29.940Z,7.96
2022-09-17T03:33:59.038Z,8.03
2022-09-17T03:36:29.017Z,8.03
2022-09-17T03:39:07.988Z,8.05
2022-09-17T03:41:37.498Z,8.09
2022-09-17T03:44:15.770Z,8.09
2022-09-17T03:46:45.397Z,7.95
2022-09-17T03:49:19.194Z,7.84
2022-09-17T03:51:49.352Z,7.75
2022-09-17T03:54:20.658Z,7.73
2022-09-17T03:56:49.873Z,7.64
2022-09-17T03:59:19.240Z,7.59
2022-09-17T04:01:51.080Z,7.63
2022-09-17T04:04:20.479Z,7.70
2022-09-17T04:06:50.544Z,7.78
2022-09-17T04:09:36.004Z,7.82
2022-09-17T04:12:05.373Z,7.75
2022-09-17T04:14:35.663Z,7.72
2022-09-17T04:17:04.603Z,7.75
2022-09-17T04:19:34.197Z,7.75
2022-09-17T04:22:04.988Z,7.74
2022-09-17T04:24:37.761Z,7.78
2022-09-17T04:27:08.058Z,7.75
2022-09-17T04:29:36.410Z,7.72
2022-09-17T04:32:14.393Z,7.70
2022-09-17T04:34:44.875Z,7.70
2022-09-17T04:37:17.353Z,7.67
2022-09-17T04:39:50.950Z,7.59
2022-09-17T04:42:25.429Z,7.48
2022-09-17T04:45:03.107Z,7.40
2022-09-17T04:47:33.538Z,7.37
2022-09-17T04:50:02.963Z,7.41
2022-09-17T04:52:46.640Z,7.40
2022-09-17T04:55:17.977Z,7.38
2022-09-17T04:57:48.789Z,7.31
2022-09-17T05:00:18.800Z,7.23
2022-09-17T05:02:48.640Z,7.17
2022-09-17T05:05:18.744Z,7.18
2022-09-17T05:07:52.167Z,7.32
2022-09-17T05:10:23.461Z,7.28
2022-09-17T05:12:53.272Z,7.18
2022-09-17T05:15:22.404Z,7.10
2022-09-17T05:17:59.318Z,7.04
2022-09-17T05:20:56.061Z,6.97
2022-09-17T05:23:42.259Z,6.83
2022-09-17T05:26:10.824Z,6.80
2022-09-17T05:28:47.992Z,6.76
2022-09-17T05:31:22.614Z,6.77
2022-09-17T05:33:51.174Z,6.76
2022-09-17T05:36:20.551Z,6.74
2022-09-17T05:38:57.595Z,6.71
2022-09-17T05:41:32.023Z,6.72
2022-09-17T05:44:18.279Z,6.70
2022-09-17T05:46:48.249Z,6.78
2022-09-17T05:49:17.197Z,6.78
2022-09-17T05:51:52.188Z,6.77
2022-09-17T05:54:28.861Z,6.76
2022-09-17T05:56:57.465Z,6.75
2022-09-17T05:59:27.023Z,6.67
2022-09-17T06:01:57.675Z,6.60
2022-09-17T06:04:28.223Z,6.54
2022-09-17T06:06:57.942Z,6.59
2022-09-17T06:09:29.942Z,6.64
2022-09-17T06:11:58.838Z,6.74
2022-09-17T06:14:29.407Z,6.79
2022-09-17T06:16:58.475Z,6.82
2022-09-17T06:19:27.182Z,6.86
2022-09-17T06:21:55.900Z,6.95
2022-09-17T06:24:26.277Z,6.93
2022-09-17T06:26:56.588Z,6.99
2022-09-17T06:29:25.618Z,7.00
2022-09-17T06:31:54.723Z,7.04
2022-09-17T06:34:24.668Z,7.14
2022-09-17T06:36:53.344Z,7.17
2022-09-17T06:39:28.197Z,7.11
2022-09-17T06:41:58.530Z,7.07
2022-09-17T06:44:27.480Z,7.07
2022-09-17T06:46:55.881Z,7.12
2022-09-17T06:49:25.781Z,7.12
2022-09-17T06:51:56.471Z,7.19
2022-09-17T06:54:25.044Z,7.13
2022-09-17T06:56:54.448Z,7.14
2022-09-17T06:59:26.904Z,7.12
2022-09-17T07:01:56.747Z,7.18
2022-09-17T07:04:25.571Z,7.26
2022-09-17T07:06:53.916Z,7.32
2022-09-17T07:09:22.431Z,7.36
2022-09-17T07:11:50.640Z,7.35
2022-09-17T07:14:19.404Z,7.41
2022-09-17T07:16:49.442Z,7.43
2022-09-17T07:19:20.152Z,7.52
2022-09-17T07:21:50.689Z,7.58
2022-09-17T07:24:20.509Z,7.61
2022-09-17T07:26:49.516Z,7.58
2022-09-17T07:29:18.966Z,7.55
2022-09-17T07:31:59.730Z,7.52
2022-09-17T07:34:30.567Z,7.64
2022-09-17T07:36:59.052Z,7.57
2022-09-17T07:39:27.375Z,7.65
2022-09-17T07:41:55.728Z,7.72
2022-09-17T07:44:24.530Z,7.75
2022-09-17T07:47:00.008Z,7.83
2022-09-17T07:49:28.960Z,7.88
2022-09-17T07:52:00.843Z,8.00
2022-09-17T07:54:38.416Z,8.12
2022-09-17T07:57:09.273Z,8.33
2022-09-17T07:59:39.130Z,8.35
2022-09-17T08:02:14.622Z,8.43
2022-09-17T08:04:44.908Z,8.47
2022-09-17T08:07:14.326Z,8.63
2022-09-17T08:09:44.841Z,8.73
2022-09-17T08:12:14.589Z,8.82
2022-09-17T08:14:43.890Z,8.87
2022-09-17T08:17:13.928Z,8.94
2022-09-17T08:19:43.529Z,8.95
2022-09-17T08:22:13.172Z,9.06
2022-09-17T08:24:48.557Z,9.11
2022-09-17T08:27:17.906Z,9.14
2022-09-17T08:29:48.557Z,9.29
2022-09-17T08:32:20.074Z,9.29
2022-09-17T08:34:58.298Z,9.45
2022-09-17T08:37:33.972Z,9.63
2022-09-17T08:40:04.164Z,9.79
2022-09-17T08:42:38.937Z,9.83
2022-09-17T08:45:14.410Z,9.93
2022-09-17T08:47:48.560Z,9.92
2022-09-17T08:50:26.597Z,10.07
2022-09-17T08:53:21.895Z,10.11
2022-09-17T08:56:03.454Z,10.22
2022-09-17T08:59:02.190Z,10.35
2022-09-17T09:01:39.557Z,10.43
2022-09-17T09:04:33.586Z,10.52
2022-09-17T09:07:12.785Z,10.52
2022-09-17T09:09:47.124Z,10.57
2022-09-17T09:12:24.479Z,10.72
2022-09-17T09:15:00.172Z,10.83
2022-09-17T09:17:40.445Z,10.98
2022-09-17T09:20:18.679Z,11.10
2022-09-17T09:22:52.212Z,11.26
2022-09-17T09:25:24.652Z,11.43
2022-09-17T09:28:18.550Z,11.55
2022-09-17T09:31:02.261Z,11.47
2022-09-17T09:33:34.313Z,11.70
2022-09-17T09:36:07.610Z,11.81
2022-09-17T09:38:42.225Z,11.77
2022-09-17T09:41:21.644Z,11.92
2022-09-17T09:44:04.013Z,11.93
2022-09-17T09:46:52.806Z,12.18
2022-09-17T09:49:37.953Z,12.30
2022-09-17T09:52:22.016Z,12.39
2022-09-17T09:55:12.210Z,12.58
2022-09-17T09:57:47.624Z,12.66
2022-09-17T10:00:28.407Z,12.48
2022-09-17T10:03:05.752Z,12.33
2022-09-17T10:05:34.562Z,12.26
2022-09-17T10:08:13.730Z,12.27
2022-09-17T10:11:01.989Z,12.44
2022-09-17T10:13:33.173Z,12.66
2022-09-17T10:16:19.573Z,12.95
2022-09-17T10:18:51.070Z,13.03
2022-09-17T10:21:22.676Z,12.83
2022-09-17T10:23:52.876Z,12.88
2022-09-17T10:26:25.961Z,13.19
2022-09-17T10:28:57.178Z,13.24
2022-09-17T10:31:26.423Z,13.21
2022-09-17T10:33:59.014Z,13.20
2022-09-17T10:36:44.086Z,13.35
2022-09-17T10:39:32.747Z,13.44
2022-09-17T10:42:05.055Z,13.80
2022-09-17T10:44:37.611Z,13.78
2022-09-17T10:47:13.387Z,13.54
2022-09-17T10:49:45.397Z,13.84
2022-09-17T10:52:23.626Z,14.51
2022-09-17T10:55:06.399Z,14.70
2022-09-17T10:57:51.187Z,14.70
2022-09-17T11:00:23.963Z,14.58
2022-09-17T11:03:22.057Z,14.38
2022-09-17T11:06:13.706Z,14.15
2022-09-17T11:08:53.223Z,14.10
2022-09-17T11:11:34.911Z,14.23
2022-09-17T11:14:15.404Z,14.26
2022-09-17T11:16:55.929Z,14.13
2022-09-17T11:19:36.860Z,14.12
2022-09-17T11:22:13.497Z,14.20
2022-09-17T11:25:11.804Z,14.53
2022-09-17T11:27:57.556Z,14.95
2022-09-17T11:30:27.435Z,15.10
2022-09-17T11:33:17.984Z,15.29
2022-09-17T11:35:50.656Z,15.19
2022-09-17T11:38:26.718Z,14.89
2022-09-17T11:41:04.710Z,14.74
2022-09-17T11:43:38.076Z,14.58
2022-09-17T11:46:11.024Z,14.43
2022-09-17T11:48:47.914Z,14.44
2022-09-17T11:51:29.392Z,15.37
2022-09-17T11:54:05.451Z,16.06
2022-09-17T11:56:40.740Z,16.42
2022-09-17T11:59:20.116Z,16.55
2022-09-17T12:01:53.343Z,16.60
2022-09-17T12:04:44.121Z,16.12
2022-09-17T12:07:24.048Z,15.97
2022-09-17T12:09:58.857Z,16.18
2022-09-17T12:12:50.202Z,16.49
2022-09-17T12:15:25.388Z,16.72
2022-09-17T12:18:31.616Z,16.88
2022-09-17T12:21:04.856Z,16.62
2022-09-17T12:23:40.827Z,16.14
2022-09-17T12:26:24.936Z,15.82
2022-09-17T12:29:02.862Z,15.66
2022-09-17T12:31:41.685Z,15.72
2022-09-17T12:34:32.698Z,15.59
2022-09-17T12:37:13.004Z,15.33
2022-09-17T12:39:57.596Z,15.10
2022-09-17T12:42:44.972Z,15.16
2022-09-17T12:45:26.669Z,15.41
2022-09-17T12:48:23.139Z,15.60
2022-09-17T12:51:05.714Z,15.78
2022-09-17T12:53:38.674Z,15.60
2022-09-17T12:56:19.419Z,15.73
2022-09-17T12:59:03.770Z,16.34
2022-09-17T13:01:39.976Z,16.63
2022-09-17T13:05:00.626Z,16.78
2022-09-17T13:07:55.393Z,16.47
2022-09-17T13:10:40.024Z,16.93
2022-09-17T13:13:26.694Z,16.84
2022-09-17T13:16:08.429Z,16.57
2022-09-17T13:19:05.700Z,16.37
2022-09-17T13:21:45.950Z,16.20
2022-09-17T13:24:20.087Z,16.70
2022-09-17T13:26:48.974Z,16.85
2022-09-17T13:29:50.595Z,17.06
2022-09-17T13:32:52.689Z,17.40
2022-09-17T13:35:54.343Z,17.66
2022-09-17T13:38:25.784Z,17.55
2022-09-17T13:41:28.696Z,17.52
2022-09-17T13:44:00.790Z,17.84
2022-09-17T13:46:33.795Z,17.83
2022-09-17T13:49:07.198Z,17.77
2022-09-17T13:51:53.845Z,17.22
2022-09-17T13:54:40.169Z,16.98
2022-09-17T13:57:16.502Z,17.01
2022-09-17T13:59:59.234Z,17.89
2022-09-17T14:02:50.610Z,18.30
2022-09-17T14:05:38.131Z,18.99
2022-09-17T14:08:16.322Z,19.71
2022-09-17T14:10:50.318Z,20.42
2022-09-17T14:13:45.176Z,19.65
2022-09-17T14:16:35.983Z,20.55
2022-09-17T14:19:22.750Z,21.39
2022-09-17T14:22:01.015Z,22.31
2022-09-17T14:24:38.364Z,21.80
2022-09-17T14:27:22.679Z,20.74
2022-09-17T14:30:17.205Z,20.05
2022-09-17T14:32:53.560Z,19.96
2022-09-17T14:35:28.250Z,20.36
2022-09-17T14:38:10.716Z,20.80
2022-09-17T14:40:48.598Z,21.06
2022-09-17T14:43:44.943Z,21.75
2022-09-17T14:46:24.671Z,21.40
2022-09-17T14:48:53.588Z,21.01
2022-09-17T14:51:31.128Z,21.23
2022-09-17T14:54:21.201Z,21.53
2022-09-17T14:57:20.179Z,22.24
2022-09-17T14:59:56.290Z,23.48
2022-09-17T15:02:35.937Z,24.05
2022-09-17T15:07:45.370Z,22.87
2022-09-17T15:10:16.635Z,22.76
2022-09-17T15:12:47.238Z,22.99
2022-09-17T15:15:23.595Z,23.46
2022-09-17T15:17:56.481Z,23.12
2022-09-17T15:20:34.078Z,23.35
2022-09-17T15:23:13.657Z,22.40
2022-09-17T15:26:03.980Z,22.21
2022-09-17T15:28:56.990Z,21.04
2022-09-17T15:31:41.448Z,20.96
2022-09-17T15:44:00.099Z,24.16
2022-09-17T15:46:57.539Z,24.15
2022-09-17T15:49:35.346Z,24.13
2022-09-17T15:52:31.956Z,24.85
2022-09-17T15:55:00.910Z,24.83
2022-09-17T15:57:33.850Z,25.33
2022-09-17T16:00:17.759Z,25.04
2022-09-17T16:02:56.966Z,24.93
2022-09-17T16:05:55.746Z,21.90
2022-09-17T16:08:35.923Z,23.54
2022-09-17T16:11:04.234Z,25.27
2022-09-17T16:13:32.802Z,25.51
2022-09-17T16:16:02.005Z,26.24
2022-09-17T16:18:32.484Z,24.54
2022-09-17T16:21:15.102Z,24.60
2022-09-17T16:23:49.657Z,24.21
2022-09-17T16:26:21.374Z,23.67
2022-09-17T16:29:02.166Z,21.20
2022-09-17T16:31:53.217Z,22.76
2022-09-17T16:34:28.870Z,20.91
2022-09-17T16:40:19.204Z,24.02
2022-09-17T16:43:15.690Z,24.92
2022-09-17T16:46:00.153Z,24.82
2022-09-17T16:48:36.808Z,24.50
2022-09-17T16:51:19.633Z,24.70
2022-09-17T16:53:50.480Z,24.13
2022-09-17T16:56:21.771Z,24.26
2022-09-17T16:58:50.699Z,25.10
2022-09-17T17:01:21.109Z,24.35
2022-09-17T17:03:53.843Z,24.51
2022-09-17T17:06:57.979Z,24.78
2022-09-17T17:09:38.464Z,24.43
2022-09-17T17:12:07.795Z,24.85
2022-09-17T17:14:37.812Z,24.72
2022-09-17T17:17:06.418Z,23.49
2022-09-17T17:19:35.479Z,22.40
2022-09-17T17:22:06.990Z,21.05
2022-09-17T17:24:36.119Z,20.49
2022-09-17T17:27:04.836Z,19.89
2022-09-17T17:29:34.623Z,19.40
2022-09-17T17:32:04.049Z,19.07
2022-09-17T17:34:33.320Z,18.51
2022-09-17T17:37:01.621Z,18.17
2022-09-17T17:39:34.729Z,17.90
2022-09-17T17:42:03.034Z,17.70
2022-09-17T17:44:31.394Z,17.43
2022-09-17T17:47:00.087Z,17.37
2022-09-17T17:49:28.701Z,17.20
2022-09-17T17:51:57.011Z,17.14
2022-09-17T17:54:27.690Z,16.71
2022-09-17T17:56:58.157Z,16.43
2022-09-17T17:59:27.765Z,16.45
2022-09-17T18:01:56.737Z,16.14
2022-09-17T18:04:25.879Z,16.10
2022-09-17T18:06:54.509Z,15.69
2022-09-17T18:09:23.575Z,15.59
2022-09-17T18:11:52.362Z,15.43
2022-09-17T18:14:22.197Z,15.35
2022-09-17T18:16:50.888Z,15.25
2022-09-17T18:19:19.343Z,15.18
2022-09-17T18:22:44.717Z,15.07
2022-09-17T18:54:25.203Z,14.43
2022-09-17T18:56:54.127Z,14.41
2022-09-17T18:59:23.560Z,14.41
2022-09-17T19:01:53.344Z,14.38
2022-09-17T19:04:22.973Z,14.42
2022-09-17T19:06:52.387Z,14.38
2022-09-17T19:09:20.918Z,14.24
2022-09-17T19:11:50.620Z,14.16
2022-09-17T19:14:19.073Z,14.07
2022-09-17T19:16:47.340Z,13.98
2022-09-17T19:19:16.668Z,13.87
2022-09-17T19:21:50.545Z,13.83
2022-09-17T19:24:19.000Z,13.83
2022-09-17T19:26:50.972Z,13.85
2022-09-17T19:29:21.428Z,13.87
2022-09-17T19:31:49.881Z,13.89
2022-09-17T19:34:18.416Z,13.92
2022-09-17T19:36:47.858Z,13.94
2022-09-17T19:39:18.203Z,14.01
2022-09-17T19:41:47.000Z,14.05
2022-09-17T19:44:15.364Z,14.05
2022-09-17T19:46:45.362Z,14.08
2022-09-17T19:49:14.305Z,14.08
2022-09-17T19:51:42.692Z,14.05
2022-09-17T19:54:11.691Z,13.94
2022-09-17T19:56:40.291Z,13.91
2022-09-17T19:59:08.717Z,13.82
2022-09-17T20:01:37.165Z,13.80
2022-09-17T20:04:08.264Z,13.78
2022-09-17T20:06:37.860Z,13.80
2022-09-17T20:09:06.226Z,13.64
2022-09-17T20:11:35.307Z,13.57
2022-09-17T20:14:07.327Z,13.64
2022-09-17T20:16:37.949Z,13.63
2022-09-17T20:19:08.784Z,13.57
2022-09-17T20:21:37.519Z,13.59
2022-09-17T20:24:08.423Z,13.57
2022-09-17T20:26:37.332Z,13.55
2022-09-17T20:29:06.086Z,13.53
2022-09-17T20:31:35.145Z,13.39
2022-09-17T20:34:04.748Z,13.26
2022-09-17T20:36:36.245Z,13.15
2022-09-17T20:39:14.306Z,13.12
2022-09-17T20:41:47.481Z,13.07
2022-09-17T20:44:17.868Z,13.03
2022-09-17T20:46:47.326Z,12.98
2022-09-17T20:49:15.907Z,13.05
2022-09-17T20:51:47.234Z,13.05
2022-09-17T20:54:16.560Z,13.18
2022-09-17T20:56:45.113Z,13.16
2022-09-17T20:59:18.912Z,13.10
2022-09-17T21:01:50.528Z,13.10
2022-09-17T21:04:20.511Z,13.13
2022-09-17T21:06:55.379Z,13.20
2022-09-17T21:09:24.340Z,13.09
2022-09-17T21:11:53.073Z,13.00
2022-09-17T21:14:22.252Z,13.01
2022-09-17T21:16:51.195Z,12.90
2022-09-17T21:19:20.921Z,12.78
2022-09-17T21:21:51.873Z,12.81
2022-09-17T21:24:21.800Z,12.80
2022-09-17T21:26:51.781Z,12.79
2022-09-17T21:29:20.256Z,12.74
2022-09-17T21:31:48.873Z,12.56
2022-09-17T21:34:18.595Z,12.43
2022-09-17T21:36:48.308Z,12.39
2022-09-17T21:39:18.636Z,12.44
2022-09-17T21:41:49.296Z,12.39
2022-09-17T21:44:17.727Z,12.24
2022-09-17T21:46:46.602Z,12.17
2022-09-17T21:49:16.560Z,12.19
2022-09-17T21:51:45.015Z,12.28
2022-09-17T21:54:17.153Z,12.26
2022-09-17T21:56:47.952Z,12.31
2022-09-17T21:59:17.684Z,12.17
2022-09-17T22:01:49.004Z,12.12
2022-09-17T22:04:20.164Z,12.06
2022-09-17T22:06:51.245Z,12.06
2022-09-17T22:09:22.308Z,12.08
2022-09-17T22:11:53.408Z,12.10
2022-09-17T22:14:23.502Z,12.02
2022-09-17T22:16:54.726Z,11.97
2022-09-17T22:19:25.429Z,11.84
2022-09-17T22:21:55.842Z,11.87
2022-09-17T22:24:25.772Z,11.99
2022-09-17T22:26:58.214Z,11.87
2022-09-17T22:29:31.721Z,11.89
2022-09-17T22:32:00.965Z,11.92
2022-09-17T22:34:29.922Z,11.91
2022-09-17T22:36:59.275Z,11.84
2022-09-17T22:39:27.697Z,11.80
2022-09-17T22:41:57.738Z,11.76
2022-09-17T22:44:26.522Z,11.74
2022-09-17T22:46:54.963Z,11.71
2022-09-17T22:49:23.463Z,11.78
2022-09-17T22:51:51.690Z,11.84
2022-09-17T22:54:20.492Z,11.82
2022-09-17T22:56:49.944Z,11.77
2022-09-17T22:59:21.864Z,11.81
2022-09-17T23:01:50.407Z,11.78
2022-09-17T23:04:18.782Z,11.85
2022-09-17T23:06:47.668Z,11.81
2022-09-17T23:09:17.124Z,11.85
2022-09-17T23:11:47.133Z,11.79
2022-09-17T23:14:18.422Z,11.76
2022-09-17T23:16:49.747Z,11.75
2022-09-17T23:19:20.081Z,11.75
2022-09-17T23:21:48.756Z,11.74
2022-09-17T23:24:19.859Z,11.79
2022-09-17T23:26:48.817Z,11.70
2022-09-17T23:29:17.720Z,11.80
2022-09-17T23:31:47.608Z,11.80
2022-09-17T23:34:15.989Z,11.81
2022-09-17T23:36:44.373Z,11.66
2022-09-17T23:39:13.832Z,11.64
2022-09-17T23:41:45.689Z,11.68
2022-09-17T23:44:16.320Z,11.65
2022-09-17T23:46:46.000Z,11.63
2022-09-17T23:49:16.363Z,11.68
2022-09-17T23:51:44.825Z,11.66
2022-09-17T23:54:13.684Z,11.60
2022-09-17T23:56:42.471Z,11.53
2022-09-17T23:59:11.999Z,11.57
